INFORMACIÓN METAR y TAF
METAR FOR LESU
ADDS - METARS form results

(2144 UTC 29 November 2021)
Data provider http://aviationweather.gov/metar/data/
 
Forecast for: LESU (LA SEU , ES)
Text: TAF LESU 291400Z 2915/3015 VRB03KT 9999 FEW040 TX14/3013Z TNM04/3007Z
Forecast period: 1500 UTC 29 November 2021 to 1500 UTC 30 November 2021
Forecast type: FROM: standard forecast or significant change
Winds: variable direction winds at 3 MPH (3 knots; 1.5 m/s)
Visibility: 6 or more miles (10+ km)
Ceiling: at least 12,000 feet AGL
Clouds: few clouds at 4000 feet AGL
Weather: no significant weather forecast for this period
Text: TEMPO 2915/2917 27010G20KT
Forecast period: 1500 to 1700 UTC 29 November 2021
Forecast type: TEMPORARY: The following changes expected for less than half the time period
Winds: from the W (270 degrees) at 12 MPH (10 knots; 5.1 m/s)
gusting to 23 MPH (20 knots; 10.3 m/s)
Visibility: missing
Ceiling: unknown
Clouds: missing
Weather: no significant weather forecast for this period

 MAPA DE AEROPUERTO

 INFORMACIÓN DE PISTA
Pista 04 Longitud 4396 ft Ancho 98 ft
Elevación 0 ft Umbral desplazado 0 ft Rumbo de pista 39
Pista 22 Longitud 4396 ft Ancho 98 ft
Elevación 0 ft Umbral desplazado 0 ft Rumbo de pista 219

 FRECUANCIAS DEL AEROPUERTO

 RADIO AYUDAS DEL AEROPUERTO
Tipo NDB Nombre Seo De Urgel Frecuencia 340 KHZ



Powered by Virtual Airlines Manager [v2.6.2]